sensor_id;sensor_type;location;lat;lon;timestamp;temperature;humidity
13808;DHT22;40769;51.512;5.494;2022-10-26T00:00:05;15.00;99.90
13808;DHT22;40769;51.512;5.494;2022-10-26T00:02:31;15.00;99.90
13808;DHT22;40769;51.512;5.494;2022-10-26T00:04:57;15.00;99.90
13808;DHT22;40769;51.512;5.494;2022-10-26T00:07:23;15.00;99.90
13808;DHT22;40769;51.512;5.494;2022-10-26T00:09:48;14.90;99.90
13808;DHT22;40769;51.512;5.494;2022-10-26T00:12:14;14.80;99.90
13808;DHT22;40769;51.512;5.494;2022-10-26T00:14:40;14.70;99.90
13808;DHT22;40769;51.512;5.494;2022-10-26T00:17:05;14.70;99.90
13808;DHT22;40769;51.512;5.494;2022-10-26T00:19:34;14.70;99.90
13808;DHT22;40769;51.512;5.494;2022-10-26T00:22:00;14.70;99.90
13808;DHT22;40769;51.512;5.494;2022-10-26T00:24:25;14.80;99.90
13808;DHT22;40769;51.512;5.494;2022-10-26T00:26:51;14.90;99.90
13808;DHT22;40769;51.512;5.494;2022-10-26T00:29:17;14.90;99.90
13808;DHT22;40769;51.512;5.494;2022-10-26T00:31:43;15.00;99.90
13808;DHT22;40769;51.512;5.494;2022-10-26T00:34:11;15.00;99.90
13808;DHT22;40769;51.512;5.494;2022-10-26T00:36:36;15.10;99.90
13808;DHT22;40769;51.512;5.494;2022-10-26T00:39:02;15.20;99.90
13808;DHT22;40769;51.512;5.494;2022-10-26T00:41:30;15.20;99.90
13808;DHT22;40769;51.512;5.494;2022-10-26T00:43:58;15.20;99.90
13808;DHT22;40769;51.512;5.494;2022-10-26T00:46:30;15.30;99.90
13808;DHT22;40769;51.512;5.494;2022-10-26T00:49:01;15.30;99.90
13808;DHT22;40769;51.512;5.494;2022-10-26T00:51:37;15.30;99.90
13808;DHT22;40769;51.512;5.494;2022-10-26T00:54:07;15.40;99.90
13808;DHT22;40769;51.512;5.494;2022-10-26T00:56:35;15.40;99.90
13808;DHT22;40769;51.512;5.494;2022-10-26T00:59:04;15.50;99.90
13808;DHT22;40769;51.512;5.494;2022-10-26T01:01:32;15.50;99.90
13808;DHT22;40769;51.512;5.494;2022-10-26T01:04:00;15.50;99.90
13808;DHT22;40769;51.512;5.494;2022-10-26T01:06:30;15.60;99.90
13808;DHT22;40769;51.512;5.494;2022-10-26T01:08:56;15.50;99.90
13808;DHT22;40769;51.512;5.494;2022-10-26T01:11:22;15.60;99.90
13808;DHT22;40769;51.512;5.494;2022-10-26T01:13:48;15.60;99.90
13808;DHT22;40769;51.512;5.494;2022-10-26T01:16:28;15.60;99.90
13808;DHT22;40769;51.512;5.494;2022-10-26T01:21:47;15.60;99.90
13808;DHT22;40769;51.512;5.494;2022-10-26T01:35:48;15.50;99.90
13808;DHT22;40769;51.512;5.494;2022-10-26T01:38:23;15.50;99.90
13808;DHT22;40769;51.512;5.494;2022-10-26T01:43:36;15.30;99.90
13808;DHT22;40769;51.512;5.494;2022-10-26T01:46:05;15.30;99.90
13808;DHT22;40769;51.512;5.494;2022-10-26T01:48:32;15.30;99.90
13808;DHT22;40769;51.512;5.494;2022-10-26T01:50:59;15.30;99.90
13808;DHT22;40769;51.512;5.494;2022-10-26T01:53:26;15.40;99.90
13808;DHT22;40769;51.512;5.494;2022-10-26T01:55:53;15.30;99.90
13808;DHT22;40769;51.512;5.494;2022-10-26T02:01:43;15.40;99.90
13808;DHT22;40769;51.512;5.494;2022-10-26T02:07:33;15.50;99.90
13808;DHT22;40769;51.512;5.494;2022-10-26T02:10:20;15.50;99.90
13808;DHT22;40769;51.512;5.494;2022-10-26T02:16:50;15.50;99.90
13808;DHT22;40769;51.512;5.494;2022-10-26T02:19:00;15.50;99.90
13808;DHT22;40769;51.512;5.494;2022-10-26T02:21:47;15.50;99.90
13808;DHT22;40769;51.512;5.494;2022-10-26T02:24:14;15.50;99.90
13808;DHT22;40769;51.512;5.494;2022-10-26T02:26:44;15.50;99.90
13808;DHT22;40769;51.512;5.494;2022-10-26T02:29:14;15.30;99.90
13808;DHT22;40769;51.512;5.494;2022-10-26T02:31:41;15.50;99.90
13808;DHT22;40769;51.512;5.494;2022-10-26T02:34:11;15.50;99.90
13808;DHT22;40769;51.512;5.494;2022-10-26T02:36:40;15.40;99.90
13808;DHT22;40769;51.512;5.494;2022-10-26T02:39:07;15.40;99.90
13808;DHT22;40769;51.512;5.494;2022-10-26T02:41:35;15.50;99.90
13808;DHT22;40769;51.512;5.494;2022-10-26T02:46:45;15.30;99.90
13808;DHT22;40769;51.512;5.494;2022-10-26T02:49:11;15.20;99.90
13808;DHT22;40769;51.512;5.494;2022-10-26T02:51:48;15.30;99.90
13808;DHT22;40769;51.512;5.494;2022-10-26T02:54:16;15.10;99.90
13808;DHT22;40769;51.512;5.494;2022-10-26T02:59:13;15.20;99.90
13808;DHT22;40769;51.512;5.494;2022-10-26T03:01:40;15.20;99.90
13808;DHT22;40769;51.512;5.494;2022-10-26T03:04:06;15.20;99.90
13808;DHT22;40769;51.512;5.494;2022-10-26T03:06:34;15.20;99.90
13808;DHT22;40769;51.512;5.494;2022-10-26T03:09:00;15.30;99.90
13808;DHT22;40769;51.512;5.494;2022-10-26T03:11:26;15.30;99.90
13808;DHT22;40769;51.512;5.494;2022-10-26T03:13:51;15.30;99.90
13808;DHT22;40769;51.512;5.494;2022-10-26T03:16:17;15.30;99.90
13808;DHT22;40769;51.512;5.494;2022-10-26T03:18:42;15.40;99.90
13808;DHT22;40769;51.512;5.494;2022-10-26T03:21:08;15.40;99.90
13808;DHT22;40769;51.512;5.494;2022-10-26T03:23:34;15.40;99.90
13808;DHT22;40769;51.512;5.494;2022-10-26T03:25:59;15.40;99.90
13808;DHT22;40769;51.512;5.494;2022-10-26T03:28:25;15.40;99.90
13808;DHT22;40769;51.512;5.494;2022-10-26T03:30:51;15.40;99.90
13808;DHT22;40769;51.512;5.494;2022-10-26T03:33:17;15.50;99.90
13808;DHT22;40769;51.512;5.494;2022-10-26T03:35:42;15.60;99.90
13808;DHT22;40769;51.512;5.494;2022-10-26T03:38:08;15.30;99.90
13808;DHT22;40769;51.512;5.494;2022-10-26T03:40:35;15.60;99.90
13808;DHT22;40769;51.512;5.494;2022-10-26T03:43:01;15.50;99.90
13808;DHT22;40769;51.512;5.494;2022-10-26T03:45:26;15.50;99.90
13808;DHT22;40769;51.512;5.494;2022-10-26T03:47:52;15.60;99.90
13808;DHT22;40769;51.512;5.494;2022-10-26T03:50:19;15.50;99.90
13808;DHT22;40769;51.512;5.494;2022-10-26T03:52:46;15.50;99.90
13808;DHT22;40769;51.512;5.494;2022-10-26T03:55:12;15.40;99.90
13808;DHT22;40769;51.512;5.494;2022-10-26T03:57:42;15.50;99.90
13808;DHT22;40769;51.512;5.494;2022-10-26T04:00:09;15.50;99.90
13808;DHT22;40769;51.512;5.494;2022-10-26T04:02:35;15.50;99.90
13808;DHT22;40769;51.512;5.494;2022-10-26T04:05:01;15.50;99.90
13808;DHT22;40769;51.512;5.494;2022-10-26T04:07:27;15.40;99.90
13808;DHT22;40769;51.512;5.494;2022-10-26T04:09:53;15.30;99.90
13808;DHT22;40769;51.512;5.494;2022-10-26T04:12:18;15.30;99.90
13808;DHT22;40769;51.512;5.494;2022-10-26T04:14:44;15.40;99.90
13808;DHT22;40769;51.512;5.494;2022-10-26T04:17:09;15.10;99.90
13808;DHT22;40769;51.512;5.494;2022-10-26T04:19:35;15.20;99.90
13808;DHT22;40769;51.512;5.494;2022-10-26T04:22:00;15.20;99.90
13808;DHT22;40769;51.512;5.494;2022-10-26T04:24:26;15.20;99.90
13808;DHT22;40769;51.512;5.494;2022-10-26T04:26:54;15.30;99.90
13808;DHT22;40769;51.512;5.494;2022-10-26T04:29:20;15.30;99.90
13808;DHT22;40769;51.512;5.494;2022-10-26T04:31:45;15.40;99.90
13808;DHT22;40769;51.512;5.494;2022-10-26T04:34:11;15.60;99.90
13808;DHT22;40769;51.512;5.494;2022-10-26T04:36:37;15.50;99.90
13808;DHT22;40769;51.512;5.494;2022-10-26T04:39:02;15.60;99.90
13808;DHT22;40769;51.512;5.494;2022-10-26T04:41:28;15.60;99.90
13808;DHT22;40769;51.512;5.494;2022-10-26T04:43:53;15.60;99.90
13808;DHT22;40769;51.512;5.494;2022-10-26T04:46:19;15.70;99.90
13808;DHT22;40769;51.512;5.494;2022-10-26T04:48:47;15.60;99.90
13808;DHT22;40769;51.512;5.494;2022-10-26T04:51:12;15.80;99.90
13808;DHT22;40769;51.512;5.494;2022-10-26T04:53:38;15.70;99.90
13808;DHT22;40769;51.512;5.494;2022-10-26T04:56:04;15.80;99.90
13808;DHT22;40769;51.512;5.494;2022-10-26T04:58:30;15.80;99.90
13808;DHT22;40769;51.512;5.494;2022-10-26T05:00:55;15.80;99.90
13808;DHT22;40769;51.512;5.494;2022-10-26T05:03:21;16.50;99.90
13808;DHT22;40769;51.512;5.494;2022-10-26T05:05:47;15.90;99.90
13808;DHT22;40769;51.512;5.494;2022-10-26T05:08:13;15.80;99.90
13808;DHT22;40769;51.512;5.494;2022-10-26T05:10:39;15.90;99.90
13808;DHT22;40769;51.512;5.494;2022-10-26T05:13:05;15.90;99.90
13808;DHT22;40769;51.512;5.494;2022-10-26T05:15:31;15.90;99.90
13808;DHT22;40769;51.512;5.494;2022-10-26T05:18:01;15.90;99.90
13808;DHT22;40769;51.512;5.494;2022-10-26T05:20:29;16.00;99.90
13808;DHT22;40769;51.512;5.494;2022-10-26T05:23:00;16.10;99.90
13808;DHT22;40769;51.512;5.494;2022-10-26T05:25:29;16.30;99.90
13808;DHT22;40769;51.512;5.494;2022-10-26T05:27:59;16.10;99.90
13808;DHT22;40769;51.512;5.494;2022-10-26T05:30:25;16.10;99.90
13808;DHT22;40769;51.512;5.494;2022-10-26T05:32:55;16.10;99.90
13808;DHT22;40769;51.512;5.494;2022-10-26T05:35:21;16.10;99.90
13808;DHT22;40769;51.512;5.494;2022-10-26T05:37:46;16.00;99.90
13808;DHT22;40769;51.512;5.494;2022-10-26T05:40:12;16.10;99.90
13808;DHT22;40769;51.512;5.494;2022-10-26T05:42:37;15.90;99.90
13808;DHT22;40769;51.512;5.494;2022-10-26T05:45:03;15.90;99.90
13808;DHT22;40769;51.512;5.494;2022-10-26T05:47:29;16.00;99.90
13808;DHT22;40769;51.512;5.494;2022-10-26T05:49:54;16.00;99.90
13808;DHT22;40769;51.512;5.494;2022-10-26T05:52:22;16.10;99.90
13808;DHT22;40769;51.512;5.494;2022-10-26T05:54:48;16.10;99.90
13808;DHT22;40769;51.512;5.494;2022-10-26T05:57:13;16.10;99.90
13808;DHT22;40769;51.512;5.494;2022-10-26T05:59:40;16.20;99.90
13808;DHT22;40769;51.512;5.494;2022-10-26T06:04:35;16.20;99.90
13808;DHT22;40769;51.512;5.494;2022-10-26T06:07:12;16.30;99.90
13808;DHT22;40769;51.512;5.494;2022-10-26T06:09:39;16.40;99.90
13808;DHT22;40769;51.512;5.494;2022-10-26T06:12:06;16.40;99.90
13808;DHT22;40769;51.512;5.494;2022-10-26T06:14:33;16.40;99.90
13808;DHT22;40769;51.512;5.494;2022-10-26T06:17:20;16.50;99.90
13808;DHT22;40769;51.512;5.494;2022-10-26T06:30:47;16.50;99.90
13808;DHT22;40769;51.512;5.494;2022-10-26T06:33:13;16.60;99.90
13808;DHT22;40769;51.512;5.494;2022-10-26T06:38:15;16.50;99.90
13808;DHT22;40769;51.512;5.494;2022-10-26T06:40:43;16.50;99.90
13808;DHT22;40769;51.512;5.494;2022-10-26T06:43:26;16.50;99.90
13808;DHT22;40769;51.512;5.494;2022-10-26T06:46:31;16.50;99.90
13808;DHT22;40769;51.512;5.494;2022-10-26T06:49:18;16.40;99.90
13808;DHT22;40769;51.512;5.494;2022-10-26T06:52:14;16.40;99.90
13808;DHT22;40769;51.512;5.494;2022-10-26T06:54:48;16.40;99.90
13808;DHT22;40769;51.512;5.494;2022-10-26T06:57:17;16.40;99.90
13808;DHT22;40769;51.512;5.494;2022-10-26T07:02:11;16.40;99.90
13808;DHT22;40769;51.512;5.494;2022-10-26T07:04:39;16.40;99.90
13808;DHT22;40769;51.512;5.494;2022-10-26T07:07:05;16.40;99.90
13808;DHT22;40769;51.512;5.494;2022-10-26T07:09:30;16.40;99.90
13808;DHT22;40769;51.512;5.494;2022-10-26T07:11:56;16.50;99.90
13808;DHT22;40769;51.512;5.494;2022-10-26T07:14:21;16.50;99.90
13808;DHT22;40769;51.512;5.494;2022-10-26T07:16:47;16.50;99.90
13808;DHT22;40769;51.512;5.494;2022-10-26T07:19:12;16.60;99.90
13808;DHT22;40769;51.512;5.494;2022-10-26T07:21:38;16.70;99.90
13808;DHT22;40769;51.512;5.494;2022-10-26T07:24:04;16.90;99.90
13808;DHT22;40769;51.512;5.494;2022-10-26T07:26:30;17.00;99.90
13808;DHT22;40769;51.512;5.494;2022-10-26T07:28:55;17.30;99.90
13808;DHT22;40769;51.512;5.494;2022-10-26T07:31:21;17.20;99.90
13808;DHT22;40769;51.512;5.494;2022-10-26T07:33:46;17.40;99.90
13808;DHT22;40769;51.512;5.494;2022-10-26T07:36:12;17.50;99.90
13808;DHT22;40769;51.512;5.494;2022-10-26T07:38:38;17.90;99.90
13808;DHT22;40769;51.512;5.494;2022-10-26T07:41:04;18.00;99.90
13808;DHT22;40769;51.512;5.494;2022-10-26T07:43:30;18.00;99.90
13808;DHT22;40769;51.512;5.494;2022-10-26T07:45:56;18.20;99.90
13808;DHT22;40769;51.512;5.494;2022-10-26T07:48:21;18.40;99.90
13808;DHT22;40769;51.512;5.494;2022-10-26T07:50:47;18.50;99.90
13808;DHT22;40769;51.512;5.494;2022-10-26T07:53:13;18.70;99.90
13808;DHT22;40769;51.512;5.494;2022-10-26T07:55:39;18.80;99.90
13808;DHT22;40769;51.512;5.494;2022-10-26T07:58:05;18.90;99.90
13808;DHT22;40769;51.512;5.494;2022-10-26T08:00:30;19.00;99.90
13808;DHT22;40769;51.512;5.494;2022-10-26T08:02:56;19.10;99.90
13808;DHT22;40769;51.512;5.494;2022-10-26T08:05:22;19.20;99.90
13808;DHT22;40769;51.512;5.494;2022-10-26T08:07:47;19.40;99.90
13808;DHT22;40769;51.512;5.494;2022-10-26T08:10:14;19.50;99.90
13808;DHT22;40769;51.512;5.494;2022-10-26T08:12:41;19.60;99.90
13808;DHT22;40769;51.512;5.494;2022-10-26T08:15:08;19.70;99.90
13808;DHT22;40769;51.512;5.494;2022-10-26T08:17:33;19.90;99.90
13808;DHT22;40769;51.512;5.494;2022-10-26T08:19:59;20.00;99.90
13808;DHT22;40769;51.512;5.494;2022-10-26T08:22:25;20.20;99.90
13808;DHT22;40769;51.512;5.494;2022-10-26T08:24:52;20.30;99.90
13808;DHT22;40769;51.512;5.494;2022-10-26T08:27:18;20.50;99.90
13808;DHT22;40769;51.512;5.494;2022-10-26T08:29:43;20.60;99.90
13808;DHT22;40769;51.512;5.494;2022-10-26T08:32:09;20.80;99.90
13808;DHT22;40769;51.512;5.494;2022-10-26T08:34:35;20.90;99.90
13808;DHT22;40769;51.512;5.494;2022-10-26T08:37:00;21.10;99.90
13808;DHT22;40769;51.512;5.494;2022-10-26T08:39:26;21.20;99.90
13808;DHT22;40769;51.512;5.494;2022-10-26T08:42:01;21.30;99.90
13808;DHT22;40769;51.512;5.494;2022-10-26T08:47:22;21.50;99.90
13808;DHT22;40769;51.512;5.494;2022-10-26T08:49:59;21.70;99.90
13808;DHT22;40769;51.512;5.494;2022-10-26T08:52:34;21.80;99.90
13808;DHT22;40769;51.512;5.494;2022-10-26T08:55:02;21.90;99.90
13808;DHT22;40769;51.512;5.494;2022-10-26T08:57:40;22.00;99.90
13808;DHT22;40769;51.512;5.494;2022-10-26T09:02:35;22.20;99.90
13808;DHT22;40769;51.512;5.494;2022-10-26T09:05:01;22.30;99.90
13808;DHT22;40769;51.512;5.494;2022-10-26T09:10:19;22.50;99.90
13808;DHT22;40769;51.512;5.494;2022-10-26T09:18:29;22.90;99.90
13808;DHT22;40769;51.512;5.494;2022-10-26T09:23:46;23.10;99.90
13808;DHT22;40769;51.512;5.494;2022-10-26T09:26:54;23.20;99.90
13808;DHT22;40769;51.512;5.494;2022-10-26T09:29:13;23.30;99.90
13808;DHT22;40769;51.512;5.494;2022-10-26T09:31:41;23.30;99.90
13808;DHT22;40769;51.512;5.494;2022-10-26T09:34:16;23.40;99.90
13808;DHT22;40769;51.512;5.494;2022-10-26T09:36:42;23.50;99.90
13808;DHT22;40769;51.512;5.494;2022-10-26T09:39:18;23.40;99.90
13808;DHT22;40769;51.512;5.494;2022-10-26T09:41:57;23.50;99.90
13808;DHT22;40769;51.512;5.494;2022-10-26T09:44:37;23.50;99.90
13808;DHT22;40769;51.512;5.494;2022-10-26T09:47:14;23.60;99.90
13808;DHT22;40769;51.512;5.494;2022-10-26T09:49:54;23.60;99.90
13808;DHT22;40769;51.512;5.494;2022-10-26T09:52:21;23.60;99.90
13808;DHT22;40769;51.512;5.494;2022-10-26T09:54:46;23.60;99.90
13808;DHT22;40769;51.512;5.494;2022-10-26T09:57:14;23.70;99.90
13808;DHT22;40769;51.512;5.494;2022-10-26T09:59:44;23.60;99.90
13808;DHT22;40769;51.512;5.494;2022-10-26T10:04:56;23.50;99.90
13808;DHT22;40769;51.512;5.494;2022-10-26T10:07:22;23.50;99.90
13808;DHT22;40769;51.512;5.494;2022-10-26T10:10:15;23.50;99.90
13808;DHT22;40769;51.512;5.494;2022-10-26T10:12:42;23.60;99.90
13808;DHT22;40769;51.512;5.494;2022-10-26T10:15:20;23.50;99.90
13808;DHT22;40769;51.512;5.494;2022-10-26T10:17:48;23.50;99.90
13808;DHT22;40769;51.512;5.494;2022-10-26T10:20:19;23.50;99.90
13808;DHT22;40769;51.512;5.494;2022-10-26T10:22:56;23.50;99.90
13808;DHT22;40769;51.512;5.494;2022-10-26T10:27:56;23.70;99.90
13808;DHT22;40769;51.512;5.494;2022-10-26T10:30:30;23.60;99.90
13808;DHT22;40769;51.512;5.494;2022-10-26T10:33:05;23.70;99.90
13808;DHT22;40769;51.512;5.494;2022-10-26T10:35:31;23.80;99.90
13808;DHT22;40769;51.512;5.494;2022-10-26T10:37:56;23.80;99.90
13808;DHT22;40769;51.512;5.494;2022-10-26T10:40:24;23.80;99.90
13808;DHT22;40769;51.512;5.494;2022-10-26T10:42:54;23.90;99.90
13808;DHT22;40769;51.512;5.494;2022-10-26T10:45:28;23.80;99.90
13808;DHT22;40769;51.512;5.494;2022-10-26T10:48:00;24.00;99.90
13808;DHT22;40769;51.512;5.494;2022-10-26T10:50:28;24.00;99.90
13808;DHT22;40769;51.512;5.494;2022-10-26T10:53:14;24.00;99.90
13808;DHT22;40769;51.512;5.494;2022-10-26T10:55:50;24.00;99.90
13808;DHT22;40769;51.512;5.494;2022-10-26T10:58:26;24.00;99.90
13808;DHT22;40769;51.512;5.494;2022-10-26T11:00:53;24.10;99.90
13808;DHT22;40769;51.512;5.494;2022-10-26T11:03:32;24.00;99.90
13808;DHT22;40769;51.512;5.494;2022-10-26T11:06:20;24.00;99.90
13808;DHT22;40769;51.512;5.494;2022-10-26T11:09:06;24.00;99.90
13808;DHT22;40769;51.512;5.494;2022-10-26T11:16:41;23.90;99.90
13808;DHT22;40769;51.512;5.494;2022-10-26T11:21:53;23.90;99.90
13808;DHT22;40769;51.512;5.494;2022-10-26T11:24:28;23.80;99.90
13808;DHT22;40769;51.512;5.494;2022-10-26T11:29:39;23.70;99.90
13808;DHT22;40769;51.512;5.494;2022-10-26T11:35:03;23.60;99.90
13808;DHT22;40769;51.512;5.494;2022-10-26T11:43:18;23.50;99.90
13808;DHT22;40769;51.512;5.494;2022-10-26T11:48:45;23.30;99.90
13808;DHT22;40769;51.512;5.494;2022-10-26T11:51:36;23.30;99.90
13808;DHT22;40769;51.512;5.494;2022-10-26T11:54:29;23.30;99.90
13808;DHT22;40769;51.512;5.494;2022-10-26T11:56:55;23.30;99.90
13808;DHT22;40769;51.512;5.494;2022-10-26T11:59:28;23.30;99.90
13808;DHT22;40769;51.512;5.494;2022-10-26T12:01:59;23.30;99.90
13808;DHT22;40769;51.512;5.494;2022-10-26T12:04:29;23.30;99.90
13808;DHT22;40769;51.512;5.494;2022-10-26T12:06:58;23.30;99.90
13808;DHT22;40769;51.512;5.494;2022-10-26T12:09:30;23.30;99.90
13808;DHT22;40769;51.512;5.494;2022-10-26T12:12:10;23.30;99.90
13808;DHT22;40769;51.512;5.494;2022-10-26T12:17:29;23.40;99.90
13808;DHT22;40769;51.512;5.494;2022-10-26T12:22:56;23.40;99.90
13808;DHT22;40769;51.512;5.494;2022-10-26T12:25:21;23.50;99.90
13808;DHT22;40769;51.512;5.494;2022-10-26T12:27:48;23.50;99.90
13808;DHT22;40769;51.512;5.494;2022-10-26T12:37:58;23.70;99.90
13808;DHT22;40769;51.512;5.494;2022-10-26T12:43:31;23.70;99.90
13808;DHT22;40769;51.512;5.494;2022-10-26T12:48:50;23.70;99.90
13808;DHT22;40769;51.512;5.494;2022-10-26T12:56:54;23.70;99.90
13808;DHT22;40769;51.512;5.494;2022-10-26T13:05:32;23.70;99.90
13808;DHT22;40769;51.512;5.494;2022-10-26T13:08:03;23.80;99.90
13808;DHT22;40769;51.512;5.494;2022-10-26T13:10:30;23.80;99.90
13808;DHT22;40769;51.512;5.494;2022-10-26T13:13:00;23.80;99.90
13808;DHT22;40769;51.512;5.494;2022-10-26T13:15:52;23.80;99.90
13808;DHT22;40769;51.512;5.494;2022-10-26T13:18:19;23.80;99.90
13808;DHT22;40769;51.512;5.494;2022-10-26T13:23:26;23.90;99.90
13808;DHT22;40769;51.512;5.494;2022-10-26T13:28:46;24.00;99.90
13808;DHT22;40769;51.512;5.494;2022-10-26T13:34:15;24.20;99.90
13808;DHT22;40769;51.512;5.494;2022-10-26T13:39:30;24.50;99.90
13808;DHT22;40769;51.512;5.494;2022-10-26T13:41:58;24.70;99.90
13808;DHT22;40769;51.512;5.494;2022-10-26T13:44:50;24.80;99.90
13808;DHT22;40769;51.512;5.494;2022-10-26T13:47:35;25.10;99.90
13808;DHT22;40769;51.512;5.494;2022-10-26T13:50:18;25.30;99.90
13808;DHT22;40769;51.512;5.494;2022-10-26T13:53:09;25.40;99.90
13808;DHT22;40769;51.512;5.494;2022-10-26T13:55:50;25.50;99.90
13808;DHT22;40769;51.512;5.494;2022-10-26T14:03:40;25.70;99.90
13808;DHT22;40769;51.512;5.494;2022-10-26T14:06:14;25.80;99.90
13808;DHT22;40769;51.512;5.494;2022-10-26T14:08:42;25.80;99.90
13808;DHT22;40769;51.512;5.494;2022-10-26T14:11:13;25.80;99.90
13808;DHT22;40769;51.512;5.494;2022-10-26T14:13:42;25.80;99.90
13808;DHT22;40769;51.512;5.494;2022-10-26T14:16:09;25.80;99.90
13808;DHT22;40769;51.512;5.494;2022-10-26T14:18:35;25.80;99.90
13808;DHT22;40769;51.512;5.494;2022-10-26T14:21:26;25.80;99.90
13808;DHT22;40769;51.512;5.494;2022-10-26T14:23:56;25.80;99.90
13808;DHT22;40769;51.512;5.494;2022-10-26T14:26:26;25.80;99.90
13808;DHT22;40769;51.512;5.494;2022-10-26T14:28:57;25.70;99.90
13808;DHT22;40769;51.512;5.494;2022-10-26T14:31:27;25.70;99.90
13808;DHT22;40769;51.512;5.494;2022-10-26T14:33:55;25.60;99.90
13808;DHT22;40769;51.512;5.494;2022-10-26T14:36:35;25.60;99.90
13808;DHT22;40769;51.512;5.494;2022-10-26T14:39:12;25.50;99.90
13808;DHT22;40769;51.512;5.494;2022-10-26T14:41:40;25.50;99.90
13808;DHT22;40769;51.512;5.494;2022-10-26T14:44:17;25.60;99.90
13808;DHT22;40769;51.512;5.494;2022-10-26T14:46:43;25.50;99.90
13808;DHT22;40769;51.512;5.494;2022-10-26T14:49:18;25.50;99.90
13808;DHT22;40769;51.512;5.494;2022-10-26T14:51:44;25.50;99.90
13808;DHT22;40769;51.512;5.494;2022-10-26T14:54:19;25.50;99.90
13808;DHT22;40769;51.512;5.494;2022-10-26T14:56:45;25.50;99.90
13808;DHT22;40769;51.512;5.494;2022-10-26T14:59:21;25.60;99.90
13808;DHT22;40769;51.512;5.494;2022-10-26T15:07:23;25.40;99.90
13808;DHT22;40769;51.512;5.494;2022-10-26T15:09:50;25.30;99.90
13808;DHT22;40769;51.512;5.494;2022-10-26T15:12:42;25.10;99.90
13808;DHT22;40769;51.512;5.494;2022-10-26T15:17:49;24.80;99.90
13808;DHT22;40769;51.512;5.494;2022-10-26T15:20:23;24.60;99.90
13808;DHT22;40769;51.512;5.494;2022-10-26T15:23:12;24.50;99.90
13808;DHT22;40769;51.512;5.494;2022-10-26T15:25:39;24.40;99.90
13808;DHT22;40769;51.512;5.494;2022-10-26T15:28:28;24.30;99.90
13808;DHT22;40769;51.512;5.494;2022-10-26T15:30:58;24.10;99.90
13808;DHT22;40769;51.512;5.494;2022-10-26T15:33:24;24.00;99.90
13808;DHT22;40769;51.512;5.494;2022-10-26T15:36:12;23.90;99.90
13808;DHT22;40769;51.512;5.494;2022-10-26T15:38:42;23.80;99.90
13808;DHT22;40769;51.512;5.494;2022-10-26T15:41:21;23.70;99.90
13808;DHT22;40769;51.512;5.494;2022-10-26T15:43:48;23.50;99.90
13808;DHT22;40769;51.512;5.494;2022-10-26T15:46:14;23.50;99.90
13808;DHT22;40769;51.512;5.494;2022-10-26T15:48:40;23.40;99.90
13808;DHT22;40769;51.512;5.494;2022-10-26T15:51:10;23.30;99.90
13808;DHT22;40769;51.512;5.494;2022-10-26T15:53:36;23.30;99.90
13808;DHT22;40769;51.512;5.494;2022-10-26T15:56:03;23.30;99.90
13808;DHT22;40769;51.512;5.494;2022-10-26T15:58:33;23.10;99.90
13808;DHT22;40769;51.512;5.494;2022-10-26T16:00:58;23.10;99.90
13808;DHT22;40769;51.512;5.494;2022-10-26T16:03:25;23.00;99.90
13808;DHT22;40769;51.512;5.494;2022-10-26T16:05:58;22.90;99.90
13808;DHT22;40769;51.512;5.494;2022-10-26T16:08:26;22.90;99.90
13808;DHT22;40769;51.512;5.494;2022-10-26T16:10:52;22.80;99.90
13808;DHT22;40769;51.512;5.494;2022-10-26T16:13:18;22.80;99.90
13808;DHT22;40769;51.512;5.494;2022-10-26T16:15:44;22.70;99.90
13808;DHT22;40769;51.512;5.494;2022-10-26T16:18:09;22.70;99.90
13808;DHT22;40769;51.512;5.494;2022-10-26T16:20:35;22.60;99.90
13808;DHT22;40769;51.512;5.494;2022-10-26T16:23:01;22.60;99.90
13808;DHT22;40769;51.512;5.494;2022-10-26T16:25:33;22.60;99.90
13808;DHT22;40769;51.512;5.494;2022-10-26T16:27:59;22.50;99.90
13808;DHT22;40769;51.512;5.494;2022-10-26T16:30:25;22.40;99.90
13808;DHT22;40769;51.512;5.494;2022-10-26T16:32:50;22.40;99.90
13808;DHT22;40769;51.512;5.494;2022-10-26T16:35:16;23.40;99.90
13808;DHT22;40769;51.512;5.494;2022-10-26T16:37:41;22.20;99.90
13808;DHT22;40769;51.512;5.494;2022-10-26T16:40:08;22.10;99.90
13808;DHT22;40769;51.512;5.494;2022-10-26T16:42:34;22.10;99.90
13808;DHT22;40769;51.512;5.494;2022-10-26T16:45:00;22.00;99.90
13808;DHT22;40769;51.512;5.494;2022-10-26T16:47:26;22.00;99.90
13808;DHT22;40769;51.512;5.494;2022-10-26T16:49:51;21.80;99.90
13808;DHT22;40769;51.512;5.494;2022-10-26T16:52:17;21.80;99.90
13808;DHT22;40769;51.512;5.494;2022-10-26T16:54:43;21.70;99.90
13808;DHT22;40769;51.512;5.494;2022-10-26T16:57:08;21.70;99.90
13808;DHT22;40769;51.512;5.494;2022-10-26T16:59:38;21.60;99.90
13808;DHT22;40769;51.512;5.494;2022-10-26T17:02:07;21.50;99.90
13808;DHT22;40769;51.512;5.494;2022-10-26T17:04:33;21.50;99.90
13808;DHT22;40769;51.512;5.494;2022-10-26T17:06:58;21.40;99.90
13808;DHT22;40769;51.512;5.494;2022-10-26T17:09:24;21.40;99.90
13808;DHT22;40769;51.512;5.494;2022-10-26T17:11:50;21.30;99.90
13808;DHT22;40769;51.512;5.494;2022-10-26T17:14:15;21.30;99.90
13808;DHT22;40769;51.512;5.494;2022-10-26T17:16:41;21.20;99.90
13808;DHT22;40769;51.512;5.494;2022-10-26T17:19:09;21.20;99.90
13808;DHT22;40769;51.512;5.494;2022-10-26T17:21:35;21.10;99.90
13808;DHT22;40769;51.512;5.494;2022-10-26T17:24:01;21.10;99.90
13808;DHT22;40769;51.512;5.494;2022-10-26T17:26:27;21.00;99.90
13808;DHT22;40769;51.512;5.494;2022-10-26T17:28:54;21.00;99.90
13808;DHT22;40769;51.512;5.494;2022-10-26T17:31:21;21.00;99.90
13808;DHT22;40769;51.512;5.494;2022-10-26T17:33:47;20.90;99.90
13808;DHT22;40769;51.512;5.494;2022-10-26T17:36:17;20.80;99.90
13808;DHT22;40769;51.512;5.494;2022-10-26T17:38:46;20.80;99.90
13808;DHT22;40769;51.512;5.494;2022-10-26T17:41:14;20.80;99.90
13808;DHT22;40769;51.512;5.494;2022-10-26T17:43:41;20.70;99.90
13808;DHT22;40769;51.512;5.494;2022-10-26T17:46:13;20.70;99.90
13808;DHT22;40769;51.512;5.494;2022-10-26T17:48:40;20.60;99.90
13808;DHT22;40769;51.512;5.494;2022-10-26T17:51:10;20.50;99.90
13808;DHT22;40769;51.512;5.494;2022-10-26T17:53:36;20.50;99.90
13808;DHT22;40769;51.512;5.494;2022-10-26T17:56:03;20.50;99.90
13808;DHT22;40769;51.512;5.494;2022-10-26T17:58:30;20.40;99.90
13808;DHT22;40769;51.512;5.494;2022-10-26T18:00:59;20.50;99.90
13808;DHT22;40769;51.512;5.494;2022-10-26T18:03:25;20.20;99.90
13808;DHT22;40769;51.512;5.494;2022-10-26T18:05:51;20.30;99.90
13808;DHT22;40769;51.512;5.494;2022-10-26T18:08:16;20.30;99.90
13808;DHT22;40769;51.512;5.494;2022-10-26T18:10:49;20.30;99.90
13808;DHT22;40769;51.512;5.494;2022-10-26T18:13:15;20.30;99.90